Time;durP1;ratioP1;P1;durP2;ratioP2;P2;SDS_P1;SDS_P2;PMS_P1;PMS_P2;Temp;Humidity;BMP_temperature;BMP_pressure;BME280_temperature;BME280_humidity;BME280_pressure;Samples;Min_cycle;Max_cycle;Signal;HPM_P1;HPM_P2
2022/03/12 00:01:22;;;;;;;17.02;6.57;;;;;;;;;;5064673;28;20051;-74
2022/03/12 00:03:48;;;;;;;15.52;6.63;;;;;;;;;;5046924;28;20028;-75
2022/03/12 00:06:17;;;;;;;11.57;6.35;;;;;;;;;;5052031;28;20022;-74
2022/03/12 00:08:46;;;;;;;13.15;8.52;;;;;;;;;;5051807;28;20380;-74
2022/03/12 00:11:17;;;;;;;11.43;7.72;;;;;;;;;;5051925;28;20025;-75
2022/03/12 00:13:44;;;;;;;10.85;6.80;;;;;;;;;;5032035;28;20108;-74
2022/03/12 00:16:22;;;;;;;10.90;6.18;;;;;;;;;;5030837;28;20056;-74
2022/03/12 00:18:55;;;;;;;18.63;7.05;;;;;;;;;;5026502;28;20068;-74
2022/03/12 00:21:22;;;;;;;11.93;6.03;;;;;;;;;;5026717;28;20029;-74
2022/03/12 00:23:50;;;;;;;15.10;6.10;;;;;;;;;;5046122;28;20057;-74
2022/03/12 00:26:17;;;;;;;11.48;6.30;;;;;;;;;;5046937;28;20031;-74
2022/03/12 00:28:44;;;;;;;11.43;4.53;;;;;;;;;;5051652;28;20044;-75
2022/03/12 00:31:12;;;;;;;16.57;4.70;;;;;;;;;;5051323;28;20029;-74
2022/03/12 00:33:38;;;;;;;10.73;3.93;;;;;;;;;;5068707;28;20056;-74
2022/03/12 00:36:05;;;;;;;9.30;4.43;;;;;;;;;;5071758;28;20028;-74
2022/03/12 00:38:32;;;;;;;10.90;4.17;;;;;;;;;;5070745;28;20028;-74
2022/03/12 00:41:02;;;;;;;15.83;3.60;;;;;;;;;;5066276;28;20021;-74
2022/03/12 00:43:29;;;;;;;6.47;3.70;;;;;;;;;;5065802;28;20024;-74
2022/03/12 00:45:55;;;;;;;9.67;3.93;;;;;;;;;;5046057;28;20052;-74
2022/03/12 00:48:22;;;;;;;17.80;4.97;;;;;;;;;;5045814;28;20025;-75
2022/03/12 00:50:49;;;;;;;10.17;4.63;;;;;;;;;;5051483;28;20049;-74
2022/03/12 00:53:15;;;;;;;11.83;3.93;;;;;;;;;;5051617;28;20013;-75
2022/03/12 00:55:42;;;;;;;8.30;4.23;;;;;;;;;;5057157;28;20471;-75
2022/03/12 00:58:09;;;;;;;10.13;3.60;;;;;;;;;;5074918;28;20402;-75
2022/03/12 01:00:36;;;;;;;10.03;3.83;;;;;;;;;;5074715;28;20025;-74
2022/03/12 01:03:03;;;;;;;8.17;3.30;;;;;;;;;;5069627;28;20479;-75
2022/03/12 01:05:48;;;;;;;13.33;3.63;;;;;;;;;;5069348;28;20029;-74
2022/03/12 01:08:15;;;;;;;;;;;;;;;;;;5062302;28;20041;-75
2022/03/12 01:10:42;;;;;;;9.33;3.10;;;;;;;;;;5049441;28;19909;-74
2022/03/12 01:13:09;;;;;;;11.10;3.10;;;;;;;;;;5054784;28;20466;-73
2022/03/12 01:15:35;;;;;;;13.20;3.70;;;;;;;;;;5054793;28;20108;-74
2022/03/12 01:18:02;;;;;;;12.30;4.10;;;;;;;;;;5054257;28;20059;-74
2022/03/12 01:20:29;;;;;;;7.37;3.43;;;;;;;;;;5064433;28;20409;-75
2022/03/12 01:22:56;;;;;;;9.67;3.37;;;;;;;;;;5074610;28;20111;-74
2022/03/12 01:25:23;;;;;;;7.50;3.37;;;;;;;;;;5069259;28;20020;-74
2022/03/12 01:27:49;;;;;;;12.67;2.90;;;;;;;;;;5069189;28;20426;-74
2022/03/12 01:30:26;;;;;;;7.93;3.60;;;;;;;;;;5069006;28;20041;-75
2022/03/12 01:32:52;;;;;;;5.93;3.80;;;;;;;;;;5055054;28;20025;-74
2022/03/12 01:35:19;;;;;;;10.07;3.00;;;;;;;;;;5053730;28;20095;-74
2022/03/12 01:37:46;;;;;;;7.20;3.07;;;;;;;;;;5054238;28;20025;-73
2022/03/12 01:40:14;;;;;;;10.77;2.90;;;;;;;;;;5054220;28;20037;-73
2022/03/12 01:42:43;;;;;;;7.20;3.40;;;;;;;;;;5054201;28;20693;-74
2022/03/12 01:45:13;;;;;;;11.37;3.10;;;;;;;;;;5071256;28;20064;-74
2022/03/12 01:47:40;;;;;;;7.30;3.17;;;;;;;;;;5068612;28;20028;-73
2022/03/12 01:50:07;;;;;;;9.07;3.47;;;;;;;;;;5068341;28;20507;-74
2022/03/12 01:52:34;;;;;;;10.37;2.93;;;;;;;;;;5058947;28;20021;-74
2022/03/12 01:55:01;;;;;;;7.07;2.80;;;;;;;;;;5050816;28;20826;-74
2022/03/12 01:57:29;;;;;;;7.17;2.50;;;;;;;;;;5072832;28;20071;-74
2022/03/12 01:59:56;;;;;;;6.77;2.87;;;;;;;;;;5074003;28;20021;-74
2022/03/12 02:02:23;;;;;;;8.60;4.07;;;;;;;;;;5073830;28;20043;-74
2022/03/12 02:04:52;;;;;;;8.23;3.67;;;;;;;;;;5073202;28;20024;-74
2022/03/12 02:07:21;;;;;;;12.27;3.67;;;;;;;;;;5033264;28;20104;-73
2022/03/12 02:09:49;;;;;;;11.30;3.60;;;;;;;;;;5029122;28;20115;-74
2022/03/12 02:12:15;;;;;;;5.87;3.07;;;;;;;;;;5028666;28;20029;-74
2022/03/12 02:14:43;;;;;;;11.40;3.23;;;;;;;;;;5028256;28;20017;-74
2022/03/12 02:17:10;;;;;;;6.13;2.53;;;;;;;;;;5044016;28;20029;-74
2022/03/12 02:19:39;;;;;;;6.40;2.70;;;;;;;;;;5052018;28;20025;-74
2022/03/12 02:22:07;;;;;;;7.93;3.20;;;;;;;;;;5052972;28;20025;-74
2022/03/12 02:24:35;;;;;;;11.57;2.77;;;;;;;;;;5053384;28;20108;-74
2022/03/12 02:27:04;;;;;;;6.17;2.27;;;;;;;;;;5065310;28;20035;-74
2022/03/12 02:29:31;;;;;;;11.67;3.97;;;;;;;;;;5073327;28;20039;-74
2022/03/12 02:32:03;;;;;;;8.87;3.17;;;;;;;;;;5069161;28;20107;-74
2022/03/12 02:34:39;;;;;;;11.07;3.20;;;;;;;;;;5067943;28;20044;-74
2022/03/12 02:37:06;;;;;;;8.03;3.00;;;;;;;;;;5068191;28;20442;-74
2022/03/12 02:39:34;;;;;;;10.27;3.33;;;;;;;;;;5051349;28;20036;-73
2022/03/12 02:42:01;;;;;;;8.80;3.23;;;;;;;;;;5051447;28;20460;-73
2022/03/12 02:44:28;;;;;;;6.63;2.73;;;;;;;;;;5052999;28;20024;-74
2022/03/12 02:47:11;;;;;;;5.90;3.20;;;;;;;;;;5053061;28;20494;-73
2022/03/12 02:49:39;;;;;;;6.43;2.90;;;;;;;;;;5054545;28;20032;-74
2022/03/12 02:52:06;;;;;;;9.30;2.87;;;;;;;;;;5072907;28;20089;-74
2022/03/12 02:54:34;;;;;;;6.03;3.10;;;;;;;;;;5068235;28;20029;-74
2022/03/12 02:57:02;;;;;;;9.43;3.20;;;;;;;;;;5067451;28;20055;-74
2022/03/12 02:59:29;;;;;;;7.50;2.90;;;;;;;;;;5067141;28;20021;-74
2022/03/12 03:01:57;;;;;;;6.77;2.50;;;;;;;;;;5060431;28;20063;-74
2022/03/12 03:04:25;;;;;;;6.97;2.80;;;;;;;;;;5063001;28;20112;-74
2022/03/12 03:06:52;;;;;;;8.97;2.87;;;;;;;;;;5072352;28;20064;-74
2022/03/12 03:09:19;;;;;;;4.10;2.43;;;;;;;;;;5072577;28;20033;-75
2022/03/12 03:11:46;;;;;;;4.23;2.33;;;;;;;;;;5072585;28;20025;-75
2022/03/12 03:14:16;;;;;;;4.37;2.37;;;;;;;;;;5063999;28;20033;-74
2022/03/12 03:16:45;;;;;;;9.13;2.67;;;;;;;;;;5048137;28;20060;-74
2022/03/12 03:19:12;;;;;;;6.83;3.63;;;;;;;;;;5047356;28;20070;-75
2022/03/12 03:21:39;;;;;;;13.93;4.07;;;;;;;;;;5047082;28;20033;-74
2022/03/12 03:24:06;;;;;;;10.80;3.73;;;;;;;;;;5047092;28;20025;-74
2022/03/12 03:26:39;;;;;;;7.30;3.10;;;;;;;;;;5060377;28;20029;-74
2022/03/12 03:29:06;;;;;;;6.33;3.70;;;;;;;;;;5072249;28;20048;-74
2022/03/12 03:31:33;;;;;;;9.73;3.97;;;;;;;;;;5072173;28;20174;-74
2022/03/12 03:34:00;;;;;;;8.90;3.97;;;;;;;;;;5072167;28;20028;-74
2022/03/12 03:36:27;;;;;;;8.33;4.27;;;;;;;;;;5072251;28;20413;-74
2022/03/12 03:38:54;;;;;;;11.30;3.90;;;;;;;;;;5057008;28;20040;-74
2022/03/12 03:41:21;;;;;;;11.53;3.70;;;;;;;;;;5046917;28;20029;-74
2022/03/12 03:43:49;;;;;;;8.43;3.70;;;;;;;;;;5046991;28;20025;-74
2022/03/12 03:46:17;;;;;;;10.27;4.70;;;;;;;;;;5046955;28;20376;-74
2022/03/12 03:48:46;;;;;;;6.90;3.70;;;;;;;;;;5049176;28;20064;-74
2022/03/12 03:51:13;;;;;;;10.27;4.27;;;;;;;;;;5064024;28;20029;-74
2022/03/12 03:53:40;;;;;;;7.93;3.93;;;;;;;;;;5072174;28;20086;-75
2022/03/12 03:56:07;;;;;;;11.90;4.43;;;;;;;;;;5072190;28;20031;-74
2022/03/12 03:58:35;;;;;;;8.83;4.03;;;;;;;;;;5071989;28;20028;-74
2022/03/12 04:01:03;;;;;;;8.40;3.90;;;;;;;;;;5068748;28;20108;-74
2022/03/12 04:03:34;;;;;;;9.53;4.23;;;;;;;;;;5052634;28;20104;-75
2022/03/12 04:06:02;;;;;;;8.97;4.30;;;;;;;;;;5046679;28;20025;-74
2022/03/12 04:08:30;;;;;;;10.70;4.33;;;;;;;;;;5046335;28;20556;-74
2022/03/12 04:10:57;;;;;;;8.40;3.90;;;;;;;;;;5049414;28;20552;-74
2022/03/12 04:13:24;;;;;;;9.93;4.17;;;;;;;;;;5051823;28;20056;-74
2022/03/12 04:15:52;;;;;;;8.57;4.07;;;;;;;;;;5066995;28;20086;-74
2022/03/12 04:18:21;;;;;;;10.87;3.60;;;;;;;;;;5071734;28;20017;-74
2022/03/12 04:20:48;;;;;;;7.67;3.83;;;;;;;;;;5071685;28;20021;-74
2022/03/12 04:23:21;;;;;;;14.47;4.00;;;;;;;;;;5068947;28;20082;-73
2022/03/12 04:25:52;;;;;;;9.70;4.33;;;;;;;;;;5065862;28;20062;-74
2022/03/12 04:28:23;;;;;;;4.97;3.37;;;;;;;;;;5046342;28;20458;-74
2022/03/12 04:30:50;;;;;;;5.73;3.47;;;;;;;;;;5050257;28;20029;-74
2022/03/12 04:33:21;;;;;;;11.57;4.20;;;;;;;;;;5052584;28;20032;-74
2022/03/12 04:35:49;;;;;;;10.73;3.67;;;;;;;;;;5055778;28;20422;-74
2022/03/12 04:38:16;;;;;;;6.10;3.47;;;;;;;;;;5060810;28;20029;-74
2022/03/12 04:40:43;;;;;;;5.63;3.63;;;;;;;;;;5075124;28;20016;-74
2022/03/12 04:43:14;;;;;;;6.83;3.63;;;;;;;;;;5072447;28;20027;-74
2022/03/12 04:45:45;;;;;;;10.93;3.93;;;;;;;;;;5071744;28;20024;-74
2022/03/12 04:48:16;;;;;;;11.33;4.70;;;;;;;;;;5069502;28;20471;-74
2022/03/12 04:50:42;;;;;;;10.37;4.60;;;;;;;;;;5069868;28;20546;-74
2022/03/12 04:53:10;;;;;;;8.60;4.33;;;;;;;;;;5063629;28;20060;-74
2022/03/12 04:55:37;;;;;;;8.17;3.80;;;;;;;;;;5052502;28;20392;-74
2022/03/12 04:58:05;;;;;;;8.03;4.40;;;;;;;;;;5055185;28;20025;-74
2022/03/12 05:00:36;;;;;;;12.70;4.10;;;;;;;;;;5058402;28;20013;-74
2022/03/12 05:03:09;;;;;;;7.53;4.50;;;;;;;;;;5074976;28;20024;-74
2022/03/12 05:05:39;;;;;;;8.70;5.00;;;;;;;;;;5074799;28;20013;-73
2022/03/12 05:08:07;;;;;;;13.07;4.90;;;;;;;;;;5071463;28;20032;-74
2022/03/12 05:10:34;;;;;;;12.97;4.33;;;;;;;;;;5066326;28;20056;-74
2022/03/12 05:13:01;;;;;;;9.07;3.90;;;;;;;;;;5049660;28;20106;-74
2022/03/12 05:15:36;;;;;;;6.00;3.50;;;;;;;;;;5048968;28;20029;-74
2022/03/12 05:18:06;;;;;;;6.23;3.87;;;;;;;;;;5052128;28;20443;-74
2022/03/12 05:20:33;;;;;;;14.77;4.77;;;;;;;;;;5054722;28;20426;-74
2022/03/12 05:22:59;;;;;;;8.50;3.83;;;;;;;;;;5060429;28;20490;-74
2022/03/12 05:25:29;;;;;;;5.63;3.50;;;;;;;;;;5074579;28;20363;-74
2022/03/12 05:27:56;;;;;;;6.33;3.57;;;;;;;;;;5074557;28;20070;-74
2022/03/12 05:30:23;;;;;;;8.50;4.07;;;;;;;;;;5070931;28;20024;-74
2022/03/12 05:32:50;;;;;;;11.83;4.80;;;;;;;;;;5069037;28;20085;-74
2022/03/12 05:35:18;;;;;;;9.17;4.20;;;;;;;;;;5059955;28;20025;-74
2022/03/12 05:37:45;;;;;;;6.27;4.10;;;;;;;;;;5049001;28;20495;-74
2022/03/12 05:40:17;;;;;;;12.30;4.17;;;;;;;;;;5050754;28;20029;-74
2022/03/12 05:42:44;;;;;;;6.27;3.63;;;;;;;;;;5055016;28;20017;-75
2022/03/12 05:45:11;;;;;;;11.40;4.37;;;;;;;;;;5073808;28;20029;-74
2022/03/12 05:47:38;;;;;;;12.73;5.23;;;;;;;;;;5074198;28;20021;-74
2022/03/12 05:50:05;;;;;;;12.13;5.37;;;;;;;;;;5074096;28;20025;-74
2022/03/12 05:52:31;;;;;;;7.87;4.17;;;;;;;;;;5070980;28;20040;-74
2022/03/12 05:54:58;;;;;;;8.90;3.97;;;;;;;;;;5048873;28;20071;-74
2022/03/12 05:57:25;;;;;;;14.00;4.67;;;;;;;;;;5048751;28;20032;-74
2022/03/12 05:59:52;;;;;;;4.27;2.90;;;;;;;;;;5048635;28;20020;-74
2022/03/12 06:02:19;;;;;;;8.63;4.47;;;;;;;;;;5050419;28;20042;-74
2022/03/12 06:04:46;;;;;;;6.60;3.90;;;;;;;;;;5054327;28;20360;-74
2022/03/12 06:07:14;;;;;;;7.10;4.40;;;;;;;;;;5073547;28;20478;-74
2022/03/12 06:09:41;;;;;;;7.57;4.73;;;;;;;;;;5073743;28;20105;-74
2022/03/12 06:12:13;;;;;;;9.43;4.90;;;;;;;;;;5073784;28;20044;-74
2022/03/12 06:14:40;;;;;;;8.73;4.63;;;;;;;;;;5071223;28;20033;-74
2022/03/12 06:17:07;;;;;;;7.63;4.17;;;;;;;;;;5063181;28;20048;-74
2022/03/12 06:19:34;;;;;;;9.13;4.80;;;;;;;;;;5048244;28;20384;-74
2022/03/12 06:22:00;;;;;;;6.37;3.43;;;;;;;;;;5048389;28;20023;-73
2022/03/12 06:24:27;;;;;;;12.33;4.70;;;;;;;;;;5049737;28;20106;-73
2022/03/12 06:26:54;;;;;;;9.37;4.83;;;;;;;;;;5053596;28;20479;-73
2022/03/12 06:29:20;;;;;;;12.43;5.07;;;;;;;;;;5058916;28;20028;-73
2022/03/12 06:31:47;;;;;;;10.90;4.90;;;;;;;;;;5073343;28;20025;-73
2022/03/12 06:34:14;;;;;;;7.37;4.20;;;;;;;;;;5073078;28;20027;-73
2022/03/12 06:36:44;;;;;;;5.83;3.87;;;;;;;;;;5052194;28;20035;-74
2022/03/12 06:39:11;;;;;;;7.67;4.87;;;;;;;;;;5048133;28;20033;-73
2022/03/12 06:41:44;;;;;;;7.67;4.50;;;;;;;;;;5047849;28;20079;-73
2022/03/12 06:44:15;;;;;;;8.67;4.70;;;;;;;;;;5047976;28;20029;-72
2022/03/12 06:46:42;;;;;;;7.47;4.57;;;;;;;;;;5066492;28;20087;-72
2022/03/12 06:49:09;;;;;;;9.60;5.00;;;;;;;;;;5072826;28;20434;-72
2022/03/12 06:51:38;;;;;;;11.33;4.67;;;;;;;;;;5072579;28;20052;-72
2022/03/12 06:54:05;;;;;;;8.30;4.83;;;;;;;;;;5072919;28;20085;-72
2022/03/12 06:56:34;;;;;;;11.33;5.33;;;;;;;;;;5071380;28;20024;-72
2022/03/12 06:59:01;;;;;;;9.17;4.63;;;;;;;;;;5050788;28;20317;-73
2022/03/12 07:01:28;;;;;;;10.00;4.30;;;;;;;;;;5047459;28;20021;-72
2022/03/12 07:03:55;;;;;;;8.37;4.40;;;;;;;;;;5047433;28;20024;-72
2022/03/12 07:06:21;;;;;;;8.27;4.30;;;;;;;;;;5047786;28;20558;-72
2022/03/12 07:08:49;;;;;;;6.57;3.90;;;;;;;;;;5052166;28;20036;-72
2022/03/12 07:11:18;;;;;;;8.30;4.40;;;;;;;;;;5072804;28;20056;-72
2022/03/12 07:13:45;;;;;;;8.30;4.47;;;;;;;;;;5072756;28;20093;-72
2022/03/12 07:16:11;;;;;;;6.57;4.17;;;;;;;;;;5072400;28;20029;-71
2022/03/12 07:18:41;;;;;;;7.87;3.70;;;;;;;;;;5072122;28;20025;-71
2022/03/12 07:21:08;;;;;;;7.03;4.37;;;;;;;;;;5064415;28;20115;-72
2022/03/12 07:23:35;;;;;;;7.13;3.80;;;;;;;;;;5047455;28;20029;-71
2022/03/12 07:26:01;;;;;;;9.57;4.47;;;;;;;;;;5047445;28;20036;-71
2022/03/12 07:28:31;;;;;;;6.80;3.73;;;;;;;;;;5045412;28;20099;-73
2022/03/12 07:30:58;;;;;;;7.50;4.03;;;;;;;;;;5047868;28;20021;-73
2022/03/12 07:33:25;;;;;;;8.73;4.23;;;;;;;;;;5052319;28;20372;-72
2022/03/12 07:35:52;;;;;;;10.73;4.47;;;;;;;;;;5052538;28;20028;-72
2022/03/12 07:38:18;;;;;;;7.53;4.33;;;;;;;;;;5052342;28;20056;-72
2022/03/12 07:40:45;;;;;;;8.17;4.83;;;;;;;;;;5051575;28;20129;-74
2022/03/12 07:43:12;;;;;;;7.33;4.50;;;;;;;;;;5049732;28;20484;-73
2022/03/12 07:45:39;;;;;;;9.63;5.00;;;;;;;;;;5046189;28;20499;-73
2022/03/12 07:48:07;;;;;;;9.77;4.53;;;;;;;;;;5046908;28;20021;-73
2022/03/12 07:50:34;;;;;;;9.87;4.50;;;;;;;;;;5046561;28;20068;-74
2022/03/12 07:53:01;;;;;;;8.60;4.40;;;;;;;;;;5047105;28;20033;-73
2022/03/12 07:55:27;;;;;;;7.57;4.70;;;;;;;;;;5052156;28;20100;-73
2022/03/12 07:57:54;;;;;;;7.23;5.00;;;;;;;;;;5068281;28;20024;-73
2022/03/12 08:00:21;;;;;;;7.03;4.50;;;;;;;;;;5072127;28;20021;-73
2022/03/12 08:02:50;;;;;;;12.80;5.30;;;;;;;;;;5071946;28;20028;-73
2022/03/12 08:05:21;;;;;;;9.17;4.10;;;;;;;;;;5074356;28;20443;-73
2022/03/12 08:07:48;;;;;;;9.67;5.03;;;;;;;;;;5070159;28;20033;-74
2022/03/12 08:10:14;;;;;;;7.60;4.30;;;;;;;;;;5050851;28;20021;-73
2022/03/12 08:12:41;;;;;;;7.47;5.13;;;;;;;;;;5050825;28;20024;-73
2022/03/12 08:15:08;;;;;;;8.47;5.10;;;;;;;;;;5050898;28;20383;-73
2022/03/12 08:17:35;;;;;;;6.73;4.13;;;;;;;;;;5055962;28;20020;-73
2022/03/12 08:20:05;;;;;;;8.57;4.80;;;;;;;;;;5055834;28;20479;-73
2022/03/12 08:22:31;;;;;;;7.20;3.90;;;;;;;;;;5070917;28;20450;-73
2022/03/12 08:24:58;;;;;;;7.23;3.80;;;;;;;;;;5075645;28;20020;-73
2022/03/12 08:27:25;;;;;;;7.57;4.20;;;;;;;;;;5075650;28;20048;-73
2022/03/12 08:29:51;;;;;;;7.17;4.13;;;;;;;;;;5070472;28;20055;-73
2022/03/12 08:32:18;;;;;;;10.50;4.63;;;;;;;;;;5064888;28;20025;-73
2022/03/12 08:34:45;;;;;;;7.07;4.53;;;;;;;;;;5050367;28;20024;-73
2022/03/12 08:37:12;;;;;;;11.80;5.20;;;;;;;;;;5050238;28;20024;-73
2022/03/12 08:39:40;;;;;;;12.17;5.40;;;;;;;;;;5055044;28;20424;-72
2022/03/12 08:42:07;;;;;;;8.57;4.10;;;;;;;;;;5055309;28;20025;-73
2022/03/12 08:44:33;;;;;;;15.70;5.80;;;;;;;;;;5062509;28;20107;-73
2022/03/12 08:47:00;;;;;;;7.47;4.50;;;;;;;;;;5075372;28;20052;-73
2022/03/12 08:49:27;;;;;;;9.13;5.37;;;;;;;;;;5075437;28;20470;-73
2022/03/12 08:51:54;;;;;;;6.97;4.30;;;;;;;;;;5069638;28;20028;-73
2022/03/12 08:54:20;;;;;;;7.40;4.27;;;;;;;;;;5070062;28;20460;-73
2022/03/12 08:56:47;;;;;;;7.13;4.50;;;;;;;;;;5068246;28;20028;-73
2022/03/12 08:59:14;;;;;;;8.83;4.87;;;;;;;;;;5069885;28;20048;-74
2022/03/12 09:01:43;;;;;;;12.20;5.17;;;;;;;;;;5074213;28;20447;-73
2022/03/12 09:04:10;;;;;;;9.83;4.70;;;;;;;;;;5075106;28;20032;-73
2022/03/12 09:06:37;;;;;;;7.57;4.93;;;;;;;;;;5074808;28;20028;-73
2022/03/12 09:09:04;;;;;;;8.33;4.73;;;;;;;;;;5060273;28;20045;-73
2022/03/12 09:11:31;;;;;;;9.70;4.97;;;;;;;;;;5054872;28;20037;-73
2022/03/12 09:13:58;;;;;;;7.87;5.13;;;;;;;;;;5050059;28;20033;-73
2022/03/12 09:16:25;;;;;;;7.80;4.40;;;;;;;;;;5049238;28;20071;-73
2022/03/12 09:18:52;;;;;;;10.63;5.20;;;;;;;;;;5049587;28;20028;-73
2022/03/12 09:21:18;;;;;;;8.57;4.47;;;;;;;;;;5063396;28;20032;-73
2022/03/12 09:23:45;;;;;;;7.90;4.80;;;;;;;;;;5071087;28;20271;-73
2022/03/12 09:26:13;;;;;;;11.27;4.57;;;;;;;;;;5074685;28;20492;-73
2022/03/12 09:28:39;;;;;;;9.80;4.00;;;;;;;;;;5074279;28;20541;-73
2022/03/12 09:31:06;;;;;;;7.50;4.23;;;;;;;;;;5074681;28;20265;-73
2022/03/12 09:33:34;;;;;;;9.23;5.63;;;;;;;;;;5072617;28;20265;-73
2022/03/12 09:36:01;;;;;;;9.43;5.10;;;;;;;;;;5070282;28;20253;-73
2022/03/12 09:38:28;;;;;;;8.67;4.87;;;;;;;;;;5068951;28;20736;-73
2022/03/12 09:40:54;;;;;;;8.17;4.63;;;;;;;;;;5068924;28;20264;-73
2022/03/12 09:43:21;;;;;;;9.20;4.67;;;;;;;;;;5069078;28;20249;-73
2022/03/12 09:45:48;;;;;;;8.23;4.70;;;;;;;;;;5058803;28;20061;-73
2022/03/12 09:48:15;;;;;;;8.80;4.73;;;;;;;;;;5054045;28;20289;-73
2022/03/12 09:50:41;;;;;;;8.30;5.33;;;;;;;;;;5054164;28;20297;-73
2022/03/12 09:53:08;;;;;;;8.63;4.60;;;;;;;;;;5054020;28;20749;-73
2022/03/12 09:55:35;;;;;;;12.83;5.90;;;;;;;;;;5053675;28;20262;-73
2022/03/12 09:58:02;;;;;;;8.17;4.73;;;;;;;;;;5065355;28;20269;-73
2022/03/12 10:00:29;;;;;;;6.80;4.07;;;;;;;;;;5058497;28;20058;-73
2022/03/12 10:02:55;;;;;;;8.43;4.43;;;;;;;;;;5048659;28;20297;-73
2022/03/12 10:05:22;;;;;;;12.43;7.00;;;;;;;;;;5048787;28;20263;-73
2022/03/12 10:07:49;;;;;;;10.73;5.17;;;;;;;;;;5051395;28;20250;-73
2022/03/12 10:10:18;;;;;;;12.00;4.93;;;;;;;;;;5060914;28;20655;-73
2022/03/12 10:12:45;;;;;;;8.07;4.23;;;;;;;;;;5073715;28;20714;-72
2022/03/12 10:15:13;;;;;;;12.17;5.93;;;;;;;;;;5073791;28;20265;-73
2022/03/12 10:17:40;;;;;;;10.73;5.20;;;;;;;;;;5073600;28;20249;-73
2022/03/12 10:20:10;;;;;;;10.60;5.50;;;;;;;;;;5070232;28;20617;-73
2022/03/12 10:22:37;;;;;;;10.23;5.43;;;;;;;;;;5060102;28;20684;-73
2022/03/12 10:25:05;;;;;;;10.43;6.10;;;;;;;;;;5048111;28;20258;-73
2022/03/12 10:27:32;;;;;;;10.73;4.67;;;;;;;;;;5047635;28;20341;-72
2022/03/12 10:29:58;;;;;;;12.87;5.60;;;;;;;;;;5050944;28;20370;-73
2022/03/12 10:32:29;;;;;;;8.60;4.07;;;;;;;;;;5053426;28;20849;-73
2022/03/12 10:34:59;;;;;;;7.70;4.87;;;;;;;;;;5063236;28;20659;-73
2022/03/12 10:37:33;;;;;;;7.37;4.60;;;;;;;;;;5073307;28;20254;-73
2022/03/12 10:40:07;;;;;;;7.73;4.40;;;;;;;;;;5072869;28;20253;-73
2022/03/12 10:42:35;;;;;;;9.60;4.43;;;;;;;;;;5069298;28;20257;-73
2022/03/12 10:45:09;;;;;;;9.67;5.50;;;;;;;;;;5067846;28;20025;-73
2022/03/12 10:47:40;;;;;;;8.98;5.35;;;;;;;;;;5050995;28;20262;-73
2022/03/12 10:50:18;;;;;;;8.40;5.17;;;;;;;;;;5062783;28;20450;-73
2022/03/12 10:52:47;;;;;;;8.63;4.57;;;;;;;;;;5051579;28;20336;-73
2022/03/12 10:55:24;;;;;;;8.57;4.97;;;;;;;;;;5053121;28;20813;-73
2022/03/12 10:58:02;;;;;;;10.00;4.33;;;;;;;;;;5056589;28;20318;-73
2022/03/12 11:00:52;;;;;;;8.33;5.23;;;;;;;;;;5072854;28;20249;-73
2022/03/12 11:03:20;;;;;;;9.63;4.60;;;;;;;;;;5062116;28;20257;-73
2022/03/12 11:05:47;;;;;;;7.27;4.40;;;;;;;;;;5067461;28;20285;-73
2022/03/12 11:08:20;;;;;;;12.53;5.70;;;;;;;;;;5067164;28;20301;-73
2022/03/12 11:10:53;;;;;;;9.57;5.13;;;;;;;;;;5056907;28;20304;-72
2022/03/12 11:13:44;;;;;;;8.27;5.07;;;;;;;;;;5047769;28;20266;-73
2022/03/12 11:16:14;;;;;;;6.93;4.17;;;;;;;;;;5052406;28;20344;-73
2022/03/12 11:18:53;;;;;;;7.80;4.60;;;;;;;;;;5067369;28;20759;-72
2022/03/12 11:21:33;;;;;;;6.77;4.57;;;;;;;;;;5072410;28;20266;-73
2022/03/12 11:24:00;;;;;;;11.57;5.23;;;;;;;;;;5072549;28;20732;-73
2022/03/12 11:26:28;;;;;;;9.50;4.70;;;;;;;;;;5069597;28;20257;-73
2022/03/12 11:28:59;;;;;;;8.70;4.50;;;;;;;;;;5051052;28;20326;-73
2022/03/12 11:31:40;;;;;;;9.90;5.00;;;;;;;;;;5047020;28;20341;-73
2022/03/12 11:34:20;;;;;;;7.80;4.40;;;;;;;;;;5047134;28;20261;-73
2022/03/12 11:36:48;;;;;;;8.43;4.87;;;;;;;;;;5049961;28;20265;-73
2022/03/12 11:39:19;;;;;;;9.67;5.30;;;;;;;;;;5051402;28;20269;-73
2022/03/12 11:42:00;;;;;;;10.33;5.03;;;;;;;;;;5032399;28;20259;-73
2022/03/12 11:44:29;;;;;;;8.17;4.03;;;;;;;;;;5032250;28;20258;-72
2022/03/12 11:46:56;;;;;;;10.53;5.27;;;;;;;;;;5031922;28;20271;-73
2022/03/12 11:49:24;;;;;;;8.43;4.60;;;;;;;;;;5027958;28;20300;-73
2022/03/12 11:51:52;;;;;;;13.70;4.57;;;;;;;;;;5032382;28;20351;-73
2022/03/12 11:54:19;;;;;;;9.07;6.00;;;;;;;;;;5066908;28;20273;-73
2022/03/12 11:56:46;;;;;;;8.77;5.57;;;;;;;;;;5066893;28;20323;-72
2022/03/12 11:59:13;;;;;;;7.00;4.63;;;;;;;;;;5069295;28;20681;-73
2022/03/12 12:01:40;;;;;;;9.63;5.30;;;;;;;;;;5071825;28;20253;-73
2022/03/12 12:04:07;;;;;;;10.27;5.60;;;;;;;;;;5068977;28;20676;-72
2022/03/12 12:06:38;;;;;;;10.37;4.87;;;;;;;;;;5051867;28;20274;-74
2022/03/12 12:09:04;;;;;;;13.73;4.97;;;;;;;;;;5051949;28;20317;-73
2022/03/12 12:11:35;;;;;;;9.53;5.20;;;;;;;;;;5047980;28;20639;-73
2022/03/12 12:14:02;;;;;;;8.33;4.43;;;;;;;;;;5054525;28;20801;-73
2022/03/12 12:16:29;;;;;;;9.77;4.70;;;;;;;;;;5066497;28;20783;-73
2022/03/12 12:18:55;;;;;;;8.60;4.37;;;;;;;;;;5066694;28;20285;-73
2022/03/12 12:21:22;;;;;;;7.00;4.60;;;;;;;;;;5070108;28;20249;-73
2022/03/12 12:23:49;;;;;;;9.30;4.53;;;;;;;;;;5066304;28;20617;-73
2022/03/12 12:26:15;;;;;;;7.93;5.00;;;;;;;;;;5051837;28;20261;-73
2022/03/12 12:28:52;;;;;;;11.30;5.63;;;;;;;;;;5051743;28;20289;-73
2022/03/12 12:31:26;;;;;;;8.40;4.80;;;;;;;;;;5051342;28;20258;-73
2022/03/12 12:33:55;;;;;;;7.53;4.30;;;;;;;;;;5047418;28;20254;-73
2022/03/12 12:36:22;;;;;;;10.93;5.13;;;;;;;;;;5054478;28;20316;-73
2022/03/12 12:39:07;;;;;;;10.93;5.07;;;;;;;;;;5066618;28;20853;-73
2022/03/12 12:41:58;;;;;;;8.50;4.40;;;;;;;;;;5066523;28;20607;-73
2022/03/12 12:44:40;;;;;;;8.73;4.83;;;;;;;;;;5062199;28;20067;-72
2022/03/12 12:47:07;;;;;;;9.80;5.93;;;;;;;;;;5071302;28;20250;-72
2022/03/12 12:49:37;;;;;;;9.53;6.10;;;;;;;;;;5052078;28;20340;-72
2022/03/12 12:52:04;;;;;;;13.20;6.23;;;;;;;;;;5055244;28;20288;-73
2022/03/12 12:54:49;;;;;;;10.37;6.00;;;;;;;;;;5054279;28;20296;-73
2022/03/12 12:57:16;;;;;;;13.85;5.90;;;;;;;;;;5049690;28;20083;-72
2022/03/12 12:59:48;;;;;;;11.00;5.67;;;;;;;;;;5055427;28;20032;-72
2022/03/12 13:02:14;;;;;;;15.70;7.30;;;;;;;;;;5070057;28;20322;-73
2022/03/12 13:04:46;;;;;;;14.97;7.50;;;;;;;;;;5070693;28;20436;-73
2022/03/12 13:07:23;;;;;;;14.77;6.83;;;;;;;;;;5074990;28;20329;-73
2022/03/12 13:09:49;;;;;;;11.50;6.03;;;;;;;;;;5074669;28;20494;-72
2022/03/12 13:12:16;;;;;;;13.93;6.30;;;;;;;;;;5066591;28;20269;-73
2022/03/12 13:14:48;;;;;;;15.87;6.20;;;;;;;;;;5054682;28;20273;-73
2022/03/12 13:17:31;;;;;;;12.23;6.23;;;;;;;;;;5052840;28;20345;-73
2022/03/12 13:19:59;;;;;;;11.80;6.00;;;;;;;;;;5049703;28;20498;-73
2022/03/12 13:22:36;;;;;;;10.30;5.90;;;;;;;;;;5049232;28;20590;-73
2022/03/12 13:25:06;;;;;;;11.87;5.90;;;;;;;;;;5064899;28;20031;-73
2022/03/12 13:27:34;;;;;;;13.57;5.77;;;;;;;;;;5067503;28;20491;-73
2022/03/12 13:30:18;;;;;;;10.87;5.33;;;;;;;;;;5054384;28;20112;-73
2022/03/12 13:32:46;;;;;;;14.80;5.90;;;;;;;;;;5054707;28;20017;-73
2022/03/12 13:35:13;;;;;;;11.57;6.40;;;;;;;;;;5054572;28;20052;-72
2022/03/12 13:37:41;;;;;;;16.80;8.77;;;;;;;;;;5058360;28;20514;-73
2022/03/12 13:40:12;;;;;;;17.43;8.30;;;;;;;;;;5070776;28;20107;-73
2022/03/12 13:42:49;;;;;;;17.57;8.30;;;;;;;;;;5064090;28;20499;-73
2022/03/12 13:45:16;;;;;;;13.03;8.53;;;;;;;;;;5049079;28;20483;-73
2022/03/12 13:47:43;;;;;;;11.73;6.57;;;;;;;;;;5048901;28;20423;-73
2022/03/12 13:50:12;;;;;;;17.00;7.07;;;;;;;;;;5052204;28;20041;-73
2022/03/12 13:52:38;;;;;;;20.43;7.90;;;;;;;;;;5057813;28;20107;-73
2022/03/12 13:55:07;;;;;;;11.73;7.23;;;;;;;;;;5074128;28;20036;-73
2022/03/12 13:57:38;;;;;;;11.53;6.50;;;;;;;;;;5073614;28;20029;-73
2022/03/12 14:00:09;;;;;;;13.77;7.50;;;;;;;;;;5054937;28;20033;-73
2022/03/12 14:02:45;;;;;;;15.70;7.33;;;;;;;;;;5048911;28;20029;-73
2022/03/12 14:05:19;;;;;;;10.10;6.50;;;;;;;;;;5048660;28;20499;-73
2022/03/12 14:07:46;;;;;;;15.43;7.40;;;;;;;;;;5048555;28;20052;-73
2022/03/12 14:10:13;;;;;;;15.40;7.03;;;;;;;;;;5067200;28;20067;-73
2022/03/12 14:12:40;;;;;;;13.53;6.87;;;;;;;;;;5072309;28;20020;-73
2022/03/12 14:15:11;;;;;;;18.20;7.77;;;;;;;;;;5073821;28;20028;-73
2022/03/12 14:17:38;;;;;;;14.33;7.67;;;;;;;;;;5073748;28;20074;-73
2022/03/12 14:20:06;;;;;;;19.93;8.60;;;;;;;;;;5073073;28;20077;-74
2022/03/12 14:22:34;;;;;;;13.50;6.77;;;;;;;;;;5053027;28;20111;-74
2022/03/12 14:25:05;;;;;;;10.67;6.63;;;;;;;;;;5049201;28;20419;-73
2022/03/12 14:27:32;;;;;;;18.90;7.17;;;;;;;;;;5048316;28;20029;-73
2022/03/12 14:29:59;;;;;;;14.20;6.50;;;;;;;;;;5047962;28;20104;-73
2022/03/12 14:32:26;;;;;;;13.77;6.93;;;;;;;;;;5049861;28;20028;-73
2022/03/12 14:34:54;;;;;;;10.53;6.23;;;;;;;;;;5068993;28;20024;-73
2022/03/12 14:37:21;;;;;;;16.33;6.50;;;;;;;;;;5072774;28;20043;-73
2022/03/12 14:39:49;;;;;;;15.43;7.30;;;;;;;;;;5073189;28;20032;-73
2022/03/12 14:42:15;;;;;;;12.83;6.73;;;;;;;;;;5073225;28;20063;-73
2022/03/12 14:44:46;;;;;;;16.27;7.93;;;;;;;;;;5056754;28;20032;-73
2022/03/12 14:47:14;;;;;;;13.20;7.53;;;;;;;;;;5048891;28;20025;-73